M I D A S
Marine Information and Data Acquisition System
Tripno 1864 of the Zeeleeuw from 2010-04-23 06:30:26 to 2010-04-23 15:38:00
Back to CruiseResearch ActivitiesStationsMapUnderway DataData graphs

EquipmentUnitsComment
TimeDGPSUTC
LatitudeDGPSDM.mWGS84
LongitudeDGPSDM.mWGS84
TemperatureSBE03/SBE38deg celciusITS90
ConductivitySBE21S/mITS90
SalinitySBE21 Practical Salinity Units
ChlorophylAChelsea fluorimeterg/lCalibrated in Aceton
Missing or incorrect values are displayed as -999
Sea surface data collected by the RV Zeeleeuw from 2010-04-23 06:21:22 to 2010-04-23 16:16:10
Time Latitude Longitude Temperature Conductivity Salinity ChlorophylA
2010-04-23 06:22:31 51°13.677 2°55.9 17.5791 0.068596 0.400317 -0.965744
2010-04-23 06:23:31 51°13.689 2°55.814 17.5741 0.068596 0.400381 -1.000568
2010-04-23 06:24:31 51°13.692 2°55.776 17.5984 0.068492 0.399801 -0.965744
2010-04-23 06:25:30 51°13.689 2°55.763 17.6031 0.068492 0.399808 -0.965744
2010-04-23 06:26:31 51°13.729 2°55.735 17.5556 0.068492 0.399815 -0.965744
2010-04-23 06:27:31 51°13.81 2°55.657 17.4845 0.068492 0.399801 -0.965744
2010-04-23 06:28:31 51°13.911 2°55.594 17.5076 0.068492 0.399815 -0.965744
2010-04-23 06:29:30 51°14.018 2°55.532 17.5867 0.068492 0.3999 -0.965744
2010-04-23 06:30:31 51°14.154 2°55.415 17.3737 0.068492 0.399935 -0.965744
2010-04-23 06:31:30 51°14.312 2°55.257 17.3206 0.068492 0.399991 -0.93092
2010-04-23 06:32:29 51°14.486 2°55.061 17.3701 0.068492 0.400012 -0.965744
2010-04-23 06:33:29 51°14.668 2°54.838 17.2777 0.068492 0.399984 -0.965744
2010-04-23 06:34:28 51°14.842 2°54.6 17.2682 0.068492 0.400012 -0.93092
2010-04-23 06:35:27 51°15.029 2°54.385 17.1645 0.068492 0.400034 -0.965744
2010-04-23 06:36:27 51°15.245 2°54.227 17.2457 0.068492 0.400062 -0.965744
2010-04-23 06:37:27 51°15.455 2°54.056 17.1483 0.068492 0.400111 -0.965744
2010-04-23 06:38:27 51°15.679 2°53.934 17.1553 0.068492 0.400104 -1.000568
2010-04-23 06:39:27 51°15.907 2°53.823 17.1716 0.068492 0.400125 -0.965744
2010-04-23 06:40:27 51°16.127 2°53.685 17.0891 0.068492 0.400125 -0.93092
2010-04-23 06:41:27 51°16.334 2°53.517 17.088 0.068492 0.400153 -1.000568
2010-04-23 06:42:27 51°16.539 2°53.34 17.1393 0.068492 0.400181 -0.965744
2010-04-23 06:43:27 51°16.746 2°53.168 17.1418 0.068492 0.40021 -0.965744
2010-04-23 06:44:27 51°16.948 2°52.988 17.1496 0.068492 0.400266 -0.965744
2010-04-23 06:45:27 51°17.145 2°52.789 17.0584 0.068596 0.400924 -1.000568
2010-04-23 06:46:27 51°17.37 2°52.668 17.0596 0.068492 0.400365 -0.965744
2010-04-23 06:47:27 51°17.609 2°52.607 17.0608 0.068492 0.400428 -0.965744
2010-04-23 06:48:27 51°17.85 2°52.557 17.0805 0.068596 0.401135 -1.000568
2010-04-23 06:49:27 51°18.092 2°52.502 17.1089 0.068596 0.401227 -0.965744
2010-04-23 06:50:27 51°18.332 2°52.445 17.103 0.068596 0.401326 -1.000568
2010-04-23 06:51:27 51°18.571 2°52.387 17.1361 0.068596 0.401418 -0.965744
2010-04-23 06:52:27 51°18.81 2°52.329 17.1337 0.068596 0.401525 -0.965744
2010-04-23 06:53:27 51°19.048 2°52.271 17.1531 0.068596 0.401624 -1.000568
2010-04-23 06:54:27 51°19.286 2°52.209 17.1617 0.068596 0.401737 -1.000568
2010-04-23 06:55:27 51°19.527 2°52.15 17.1807 0.068596 0.401844 -0.93092
2010-04-23 06:56:27 51°19.763 2°52.058 17.1937 0.068596 0.401972 -0.965744
2010-04-23 06:57:27 51°19.977 2°51.887 17.1929 0.068596 0.402085 -0.965744
2010-04-23 06:58:27 51°20.176 2°51.68 17.1909 0.068596 0.402199 -0.93092
2010-04-23 06:59:27 51°20.351 2°51.436 17.2007 0.068596 0.402299 -0.965744
2010-04-23 07:00:27 51°20.53 2°51.199 17.2093 0.068596 0.402406 -1.000568
2010-04-23 07:01:27 51°20.72 2°50.977 17.2178 0.068596 0.402541 -0.965744
2010-04-23 07:02:27 51°20.909 2°50.754 17.4211 0.0687 0.403273 -0.965744
2010-04-23 07:03:27 51°21.103 2°50.535 17.3906 0.068596 0.402741 -0.965744
2010-04-23 07:04:24 51°21.286 2°50.324 17.3983 0.0687 0.403459 -0.965744
2010-04-23 07:07:35 51°21.909 2°49.629 17.4363 0.0687 0.403759 -1.000568
2010-04-23 07:08:35 51°22.096 2°49.395 17.4173 0.0687 0.403845 -1.000568
2010-04-23 07:09:35 51°22.26 2°49.128 17.4518 0.0687 0.403938 -0.965744
2010-04-23 07:10:35 51°22.423 2°48.863 17.4667 0.0687 0.404024 -0.965744
2010-04-23 07:11:35 51°22.587 2°48.602 17.4917 0.068804 0.40478 -0.965744
2010-04-23 07:12:35 51°22.723 2°48.313 17.5172 0.068804 0.404845 -0.965744
2010-04-23 07:13:35 51°22.851 2°48.014 17.5499 0.068804 0.404924 -0.965744
2010-04-23 07:14:35 51°22.979 2°47.715 17.5568 0.068804 0.405003 -0.965744
2010-04-23 07:15:35 51°23.109 2°47.418 17.5727 0.068804 0.40509 -0.965744
2010-04-23 07:16:35 51°23.24 2°47.12 17.5976 0.0687 0.404527 -1.000568
2010-04-23 07:17:35 51°23.368 2°46.813 17.6158 0.068804 0.405248 -0.965744
2010-04-23 07:18:35 51°23.493 2°46.5 17.738 0.068804 0.405327 -0.965744
2010-04-23 07:19:35 51°23.603 2°46.175 17.7744 0.0687 0.404758 -1.000568
2010-04-23 07:20:35 51°23.713 2°45.848 17.7715 0.0687 0.404837 -0.965744
2010-04-23 07:21:35 51°23.821 2°45.519 17.6729 0.068804 0.405558 -0.93092
2010-04-23 07:22:35 51°23.93 2°45.194 17.6917 0.068804 0.405623 -0.93092
2010-04-23 07:23:35 51°24.04 2°44.873 17.7004 0.068804 0.405703 -0.965744
2010-04-23 07:24:35 51°24.148 2°44.55 17.7252 0.068804 0.40579 -0.965744
2010-04-23 07:25:35 51°24.237 2°44.299 17.7293 0.068804 0.405876 -0.93092
2010-04-23 07:26:35 51°24.308 2°44.123 17.7379 0.0687 0.405328 -0.93092
2010-04-23 07:27:35 51°24.379 2°43.951 17.7558 0.068804 0.406043 -0.93092
2010-04-23 07:28:35 51°24.441 2°43.832 17.769 0.068804 0.406123 -0.965744
2010-04-23 07:29:35 51°24.504 2°43.723 17.7898 0.0687 0.405559 -0.965744
2010-04-23 07:30:35 51°24.57 2°43.673 17.8423 0.068804 0.406268 -0.965744
2010-04-23 07:31:35 51°24.612 2°43.688 17.8383 0.068804 0.40634 -0.93092
2010-04-23 07:32:35 51°24.645 2°43.71 17.8581 0.0687 0.405776 -0.93092
2010-04-23 07:33:35 51°24.672 2°43.728 17.8726 0.0687 0.40582 -0.93092
2010-04-23 07:34:35 51°24.696 2°43.746 17.8872 0.0687 0.405849 -0.93092
2010-04-23 07:35:35 51°24.719 2°43.764 17.906 0.0687 0.4059 -0.93092
2010-04-23 07:36:37 51°24.726 2°43.802 17.9235 0.0687 0.40595 -0.965744
2010-04-23 07:37:38 51°24.729 2°43.849 17.9383 0.0687 0.405987 -0.93092
2010-04-23 07:38:38 51°24.733 2°43.825 17.9534 0.0687 0.406016 -0.965744
2010-04-23 07:39:37 51°24.704 2°43.781 17.9703 0.0687 0.406066 -0.965744
2010-04-23 07:40:37 51°24.688 2°43.737 17.9887 0.0687 0.406146 -0.965744
2010-04-23 07:41:35 51°24.675 2°43.716 17.9993 0.0687 0.40619 -0.965744
2010-04-23 07:42:35 51°24.671 2°43.7 18.0203 0.0687 0.406277 -0.93092
2010-04-23 07:43:35 51°24.678 2°43.698 18.0312 0.0687 0.40635 -0.965744
2010-04-23 07:44:35 51°24.686 2°43.703 18.0439 0.0687 0.406401 -0.896096
2010-04-23 07:45:35 51°24.694 2°43.712 18.0634 0.0687 0.406451 -0.965744
2010-04-23 07:46:35 51°24.694 2°43.712 18.0775 0.0687 0.406488 -0.965744
2010-04-23 07:47:35 51°24.683 2°43.708 18.0864 0.0687 0.406531 -0.965744
2010-04-23 07:48:35 51°24.678 2°43.696 18.1029 0.0687 0.40659 -0.93092
2010-04-23 07:49:35 51°24.671 2°43.694 18.1189 0.0687 0.406626 -0.93092
2010-04-23 07:50:35 51°24.669 2°43.708 18.1287 0.0687 0.40667 -0.965744
2010-04-23 07:51:35 51°24.673 2°43.73 18.1412 0.0687 0.406706 -0.965744
2010-04-23 07:52:35 51°24.678 2°43.756 18.156 0.0687 0.40675 -0.93092
2010-04-23 07:53:35 51°24.685 2°43.784 18.1671 0.0687 0.406801 -0.93092
2010-04-23 07:54:35 51°24.693 2°43.811 18.1855 0.0687 0.406845 -0.93092
2010-04-23 07:55:35 51°24.687 2°43.834 18.1879 0.0687 0.406896 -0.965744
2010-04-23 07:56:35 51°24.681 2°43.816 18.2014 0.0687 0.406976 -0.965744
2010-04-23 07:57:35 51°24.677 2°43.782 18.2159 0.0687 0.407012 -0.93092
2010-04-23 07:58:35 51°24.669 2°43.748 18.2285 0.0687 0.407042 -0.965744
2010-04-23 07:59:35 51°24.67 2°43.716 18.2386 0.0687 0.407078 -0.93092
2010-04-23 08:00:35 51°24.672 2°43.699 18.2558 0.0687 0.4071 -0.965744
2010-04-23 08:01:35 51°24.678 2°43.7 18.2679 0.0687 0.407115 -0.965744
2010-04-23 08:02:35 51°24.683 2°43.705 18.2871 0.0687 0.407158 -0.965744
2010-04-23 08:03:34 51°24.674 2°43.693 18.2901 0.0687 0.407188 -0.965744
2010-04-23 08:04:35 51°24.661 2°43.687 18.304 0.0687 0.407246 -0.965744
2010-04-23 08:05:35 51°24.661 2°43.702 18.3179 0.0687 0.40729 -0.93092
2010-04-23 08:06:35 51°24.663 2°43.724 18.3275 0.0687 0.407341 -0.965744
2010-04-23 08:07:35 51°24.667 2°43.748 18.3423 0.0687 0.407385 -0.93092
2010-04-23 08:08:35 51°24.673 2°43.771 18.3523 0.0687 0.407421 -0.93092
2010-04-23 08:09:35 51°24.693 2°43.8 18.3587 0.0687 0.40748 -0.93092
2010-04-23 08:10:38 51°24.703 2°43.821 18.3732 0.0687 0.407553 -0.93092
2010-04-23 08:11:37 51°24.705 2°43.829 8.9026 2.330821 17.716463 2.272893
2010-04-23 08:12:37 51°24.7 2°43.818 8.8864 3.438459 31.706284 0.949579
2010-04-23 08:13:36 51°24.686 2°43.791 8.8803 3.419275 31.669055 0.601338
2010-04-23 08:14:36 51°24.683 2°43.751 8.8716 3.413794 31.657246 0.496866
2010-04-23 08:15:35 51°24.681 2°43.71 8.8805 3.412108 31.664749 0.670986
2010-04-23 08:16:35 51°24.676 2°43.687 8.8938 3.409578 31.649672 0.70581
2010-04-23 08:17:35 51°24.673 2°43.691 8.9073 3.406416 31.609069 0.566514
2010-04-23 08:18:35 51°24.675 2°43.7 8.8995 3.406837 31.614141 0.845107
2010-04-23 08:19:35 51°24.679 2°43.712 8.9 3.407364 31.6298 0.740634
2010-04-23 08:20:35 51°24.684 2°43.728 8.9046 3.407786 31.637068 0.70581
2010-04-23 08:21:35 51°24.69 2°43.746 8.9122 3.408208 31.638485 0.670986
2010-04-23 08:22:35 51°24.695 2°43.764 8.9205 3.411476 31.670678 0.670986
2010-04-23 08:23:35 51°24.674 2°43.797 8.9176 3.40884 31.638416 0.53169
2010-04-23 08:24:35 51°24.672 2°43.953 8.9239 3.407575 31.634165 0.462042
2010-04-23 08:25:35 51°24.712 2°44.279 8.8974 3.405362 31.609906 0.322746
2010-04-23 08:26:35 51°24.748 2°44.676 8.8827 3.406522 31.648187 0.845107
2010-04-23 08:27:35 51°24.721 2°45.068 8.8843 3.407365 31.661275 0.949579
2010-04-23 08:28:34 51°24.64 2°45.426 8.8882 3.403781 31.627259 0.740634
2010-04-23 08:29:35 51°24.54 2°45.779 8.9652 3.396929 31.537663 0.53169
2010-04-23 08:30:34 51°24.452 2°46.104 8.9968 3.392712 31.442614 0.636162
2010-04-23 08:31:35 51°24.41 2°46.299 9.0451 3.393449 31.421185 0.53169
2010-04-23 08:32:35 51°24.375 2°46.372 9.0933 3.389654 31.336689 0.70581
2010-04-23 08:33:35 51°24.352 2°46.38 9.1182 3.388178 31.286982 0.636162
2010-04-23 08:34:35 51°24.349 2°46.364 9.1024 3.387967 31.272598 0.601338
2010-04-23 08:35:35 51°24.353 2°46.342 9.0703 3.388916 31.306058 0.810283
2010-04-23 08:36:35 51°24.354 2°46.248 9.0279 3.388389 31.330211 1.019227
2010-04-23 08:37:34 51°24.401 2°46.148 9.0455 3.38723 31.329865 0.740634
2010-04-23 08:38:35 51°24.467 2°46.109 8.9935 3.38744 31.326254 0.740634
2010-04-23 08:39:35 51°24.532 2°46.104 8.9819 3.388811 31.382964 0.845107
2010-04-23 08:40:35 51°24.595 2°46.122 9.0239 3.387757 31.376481 0.740634
2010-04-23 08:41:35 51°24.656 2°46.16 9.0225 3.393765 31.404878 0.601338
2010-04-23 08:42:35 51°24.708 2°46.221 9.0244 3.394292 31.414632 0.566514
2010-04-23 08:43:35 51°24.743 2°46.304 9.0089 3.393133 31.405624 0.636162
2010-04-23 08:44:34 51°24.777 2°46.403 9.0304 3.394398 31.422233 0.392394
2010-04-23 08:45:35 51°24.817 2°46.501 9.0359 3.396401 31.434102 0.35757
2010-04-23 08:46:34 51°24.856 2°46.587 9.0164 3.392922 31.392605 0.35757
2010-04-23 08:47:35 51°24.884 2°46.673 9.0371 3.386281 31.336017 0.601338
2010-04-23 08:48:35 51°24.9 2°46.763 9.0622 3.388811 31.348253 0.427218
2010-04-23 08:49:35 51°24.916 2°46.862 9.0862 3.386913 31.315078 0.322746
2010-04-23 08:50:35 51°24.934 2°46.962 9.104 3.388916 31.309659 0.253098
2010-04-23 08:51:35 51°24.951 2°47.063 9.1165 3.38881 31.291301 0.287922
2010-04-23 08:52:35 51°24.968 2°47.166 9.1256 3.389864 31.293461 0.287922
2010-04-23 08:53:35 51°24.986 2°47.268 9.1405 3.391656 31.303174 0.287922
2010-04-23 08:54:35 51°25.005 2°47.37 9.1464 3.39018 31.278724 0.287922
2010-04-23 08:55:35 51°25.027 2°47.471 9.1523 3.386491 31.231648 0.253098
2010-04-23 08:56:35 51°25.054 2°47.57 9.1404 3.385858 31.223028 0.253098
2010-04-23 08:57:35 51°25.082 2°47.67 9.1335 3.390075 31.279083 0.253098
2010-04-23 08:58:35 51°25.109 2°47.772 9.1374 3.390707 31.287711 0.218274
2010-04-23 08:59:35 51°25.136 2°47.873 9.1396 3.389864 31.276925 0.253098
2010-04-23 09:00:35 51°25.161 2°47.972 9.133 3.389653 31.274768 0.253098
2010-04-23 09:01:35 51°25.186 2°48.07 9.1074 3.389337 31.283031 0.287922
2010-04-23 09:02:35 51°25.21 2°48.168 9.1263 3.389126 31.2931 0.287922
2010-04-23 09:03:35 51°25.236 2°48.266 9.1315 3.388705 31.275119 0.253098
2010-04-23 09:04:35 51°25.261 2°48.364 9.1183 3.390391 31.290945 0.322746
2010-04-23 09:05:35 51°25.283 2°48.463 9.1073 3.391656 31.315409 0.35757
2010-04-23 09:06:35 51°25.296 2°48.563 9.0944 3.391973 31.330172 0.392394
2010-04-23 09:07:35 51°25.305 2°48.664 9.0912 3.390075 31.317218 0.35757
2010-04-23 09:08:35 51°25.314 2°48.765 9.0959 3.390286 31.320819 0.35757
2010-04-23 09:09:35 51°25.324 2°48.866 9.1066 3.392394 31.340258 0.35757
2010-04-23 09:10:35 51°25.333 2°48.968 9.1369 3.390286 31.305694 0.287922
2010-04-23 09:11:34 51°25.342 2°49.067 9.1575 3.39134 31.289871 0.253098
2010-04-23 09:12:35 51°25.342 2°49.168 9.1535 3.392077 31.291671 0.287922
2010-04-23 09:13:34 51°25.341 2°49.262 9.1627 3.390602 31.283757 0.287922
2010-04-23 09:14:35 51°25.34 2°49.359 9.1735 3.389548 31.264352 0.287922
2010-04-23 09:15:34 51°25.339 2°49.451 9.1778 3.392604 31.292033 0.35757
2010-04-23 09:16:34 51°25.333 2°49.544 9.1896 3.393975 31.295991 0.392394
2010-04-23 09:17:35 51°25.315 2°49.631 9.203 3.39408 31.28845 0.427218
2010-04-23 09:18:34 51°25.288 2°49.704 9.201 3.391972 31.258288 0.462042
2010-04-23 09:19:35 51°25.254 2°49.744 9.1897 3.39408 31.280554 0.462042
2010-04-23 09:20:34 51°25.235 2°49.735 9.2231 3.394818 31.291686 0.636162
2010-04-23 09:21:35 51°25.243 2°49.69 9.2309 3.395766 31.274836 0.427218
2010-04-23 09:22:34 51°25.275 2°49.61 9.2297 3.393447 31.249715 0.462042
2010-04-23 09:23:35 51°25.325 2°49.427 9.2061 3.392288 31.240737 0.601338
2010-04-23 09:24:34 51°25.32 2°49.335 9.2052 3.394501 31.277689 0.566514
2010-04-23 09:25:34 51°25.303 2°49.301 9.2147 3.390917 31.241064 0.427218
2010-04-23 09:26:34 51°25.287 2°49.296 9.224 3.395661 31.280213 0.462042
2010-04-23 09:27:34 51°25.255 2°49.282 9.2251 3.392182 31.23966 0.53169
2010-04-23 09:28:35 51°25.204 2°49.114 9.2148 3.394185 31.255819 0.601338
2010-04-23 09:29:34 51°25.115 2°48.871 9.2061 3.386912 31.188693 1.019227
2010-04-23 09:30:35 51°25.02 2°48.614 9.2333 3.381958 31.144529 1.123699
2010-04-23 09:31:34 51°24.974 2°48.471 9.2348 3.381536 31.125236 1.088875
2010-04-23 09:32:35 51°24.972 2°48.437 9.2433 3.383222 31.128897 0.914755
2010-04-23 09:33:34 51°24.974 2°48.438 9.2693 3.387228 31.156925 0.914755
2010-04-23 09:34:34 51°24.976 2°48.445 9.283 3.387333 31.136613 0.740634
2010-04-23 09:35:35 51°24.979 2°48.455 9.2865 3.387754 31.132364 0.70581
2010-04-23 09:36:34 51°24.982 2°48.467 9.2972 3.38807 31.128467 0.70581
2010-04-23 09:37:35 51°24.985 2°48.481 9.2953 3.388492 31.1228 0.670986
2010-04-23 09:38:34 51°24.988 2°48.496 9.2831 3.388808 31.130291 0.740634
2010-04-23 09:39:35 51°24.991 2°48.513 9.2676 3.388387 31.137385 0.775459
2010-04-23 09:40:34 51°24.995 2°48.53 9.2394 3.387754 31.145187 0.984403
2010-04-23 09:41:35 51°24.999 2°48.55 9.2566 3.388387 31.166612 1.228171
2010-04-23 09:42:34 51°25.004 2°48.569 9.2722 3.386173 31.131916 1.088875
2010-04-23 09:43:34 51°25.011 2°48.593 9.2843 3.387965 31.141636 1.123699
2010-04-23 09:44:35 51°25.018 2°48.617 9.2939 3.388387 31.135249 1.088875
2010-04-23 09:45:34 51°25.025 2°48.641 9.2955 3.389019 31.135998 1.054051
2010-04-23 09:46:35 51°25.032 2°48.665 9.313 3.388176 31.121002 1.019227
2010-04-23 09:47:34 51°25.04 2°48.689 9.3126 3.390811 31.137171 0.810283
2010-04-23 09:48:35 51°25.048 2°48.711 9.3449 3.390178 31.12504 0.601338
2010-04-23 09:49:34 51°25.056 2°48.732 9.3402 3.393867 31.141976 0.462042
2010-04-23 09:50:35 51°25.066 2°48.753 9.3387 3.393867 31.145532 0.566514
2010-04-23 09:51:34 51°25.075 2°48.772 9.351 3.394078 31.140567 0.496866
2010-04-23 09:52:34 51°25.084 2°48.791 9.3355 3.393867 31.134869 0.601338
2010-04-23 09:53:34 51°25.094 2°48.81 9.3337 3.394289 31.151957 0.740634
2010-04-23 09:54:34 51°25.104 2°48.828 9.3263 3.392813 31.13978 0.740634
2010-04-23 09:55:35 51°25.113 2°48.846 9.335 3.394184 31.156575 0.810283
2010-04-23 09:56:34 51°25.123 2°48.863 9.3439 3.394816 31.154476 0.879931
2010-04-23 09:57:35 51°25.133 2°48.88 9.3364 3.393867 31.139133 0.914755
2010-04-23 09:58:34 51°25.142 2°48.896 9.3542 3.396292 31.164517 0.636162
2010-04-23 09:59:35 51°25.152 2°48.912 9.3655 3.394605 31.13456 0.636162
2010-04-23 10:00:34 51°25.169 2°48.92 9.1931 3.39724 31.156392 0.566514
2010-04-23 10:01:35 51°25.197 2°48.929 9.0759 3.398086 31.366844 1.611236
2010-04-23 10:02:34 51°25.184 2°48.892 9.2389 3.397244 31.463065 2.93455
2010-04-23 10:03:34 51°25.238 2°48.726 9.2519 3.390917 31.178858 0.636162
2010-04-23 10:04:35 51°25.426 2°48.641 9.173 3.393868 31.208244 1.088875
2010-04-23 10:05:34 51°25.654 2°48.704 9.1542 3.390812 31.267239 1.088875
2010-04-23 10:06:35 51°25.886 2°48.85 9.1853 3.392077 31.243597 0.636162
2010-04-23 10:07:34 51°26.11 2°48.989 9.0549 3.403672 31.37719 0.670986
2010-04-23 10:08:34 51°26.34 2°49.126 9.1963 3.40009 31.440821 0.601338
2010-04-23 10:09:34 51°26.563 2°49.292 9.2118 3.403777 31.339447 0.35757
2010-04-23 10:10:34 51°26.777 2°49.488 9.1009 3.410524 31.420598 0.18345
2010-04-23 10:11:34 51°26.989 2°49.683 9.1307 3.412001 31.510805 0.18345
2010-04-23 10:12:34 51°27.202 2°49.878 9.1592 3.407573 31.445936 0.218274
2010-04-23 10:13:35 51°27.419 2°50.075 9.1479 3.412527 31.488707 0.18345
2010-04-23 10:14:34 51°27.628 2°50.265 9.1771 3.414109 31.513577 0.18345
2010-04-23 10:15:54 51°27.911 2°50.522 9.194 3.417376 31.489916 -0.025495
2010-04-23 10:17:47 51°28.314 2°50.881 9.1642 3.413476 31.509995 0.044153
2010-04-23 10:18:46 51°28.526 2°51.069 9.1593 3.408943 31.449854 -0.129967
2010-04-23 10:19:47 51°28.744 2°51.263 9.1379 3.410524 31.471095 -0.199615
2010-04-23 10:20:47 51°28.959 2°51.454 9.1301 3.413266 31.544065 -0.095143
2010-04-23 10:21:46 51°29.171 2°51.64 9.0601 3.432767 31.728051 -0.304087
2010-04-23 10:22:47 51°29.391 2°51.828 8.8568 3.430449 31.775858 -0.199615
2010-04-23 10:23:45 51°29.6 2°52.008 8.8647 3.429292 31.936213 0.078977
2010-04-23 10:24:46 51°29.819 2°52.197 9.0212 3.418644 31.790826 0.009329
2010-04-23 10:25:45 51°30.031 2°52.376 9.0447 3.425074 31.795349 0.566514
2010-04-23 10:26:47 51°30.264 2°52.526 8.9666 3.431293 31.83001 0.113802
2010-04-23 10:27:46 51°30.488 2°52.655 8.6946 3.447423 32.097636 1.262995
2010-04-23 10:28:47 51°30.721 2°52.787 8.8557 3.446898 32.208611 1.9943
2010-04-23 10:29:47 51°30.951 2°52.914 8.5284 3.477997 32.514026 4.39716
2010-04-23 10:30:46 51°31.176 2°53.041 8.4696 3.47547 32.709138 5.929418
2010-04-23 10:31:47 51°31.411 2°53.173 8.6788 3.471358 32.689142 3.735503
2010-04-23 10:32:45 51°31.633 2°53.3 8.773 3.485377 32.628585 2.238069
2010-04-23 10:33:46 51°31.865 2°53.434 8.4884 3.49455 32.759817 3.979271
2010-04-23 10:34:47 51°32.096 2°53.567 8.4586 3.483482 32.829817 5.267761
2010-04-23 10:35:47 51°32.324 2°53.697 8.5547 3.482428 32.833415 4.675753
2010-04-23 10:36:46 51°32.547 2°53.826 8.6039 3.492548 32.873085 4.39716
2010-04-23 10:37:47 51°32.772 2°53.983 8.4787 3.499612 32.926903 4.22304
2010-04-23 10:38:47 51°32.984 2°54.167 8.4855 3.496661 32.97322 3.909623
2010-04-23 10:39:46 51°33.167 2°54.401 8.5066 3.501405 32.995057 3.28279
2010-04-23 10:40:47 51°33.325 2°54.698 8.5592 3.506254 33.033445 3.10867
2010-04-23 10:41:45 51°33.382 2°55.028 8.423 3.507836 33.093425 6.347307
2010-04-23 10:42:46 51°33.298 2°55.369 8.5883 3.494974 32.980311 4.57128
2010-04-23 10:43:47 51°33.206 2°55.673 8.6688 3.482321 32.657627 1.506764
2010-04-23 10:44:47 51°33.189 2°55.846 8.8255 3.477365 32.524852 0.775459
2010-04-23 10:45:46 51°33.176 2°55.918 8.6188 3.48253 32.575483 1.82018
2010-04-23 10:46:47 51°33.163 2°55.959 8.8555 3.475468 32.577145 1.541588
2010-04-23 10:47:47 51°33.153 2°55.99 8.8345 3.479156 32.467195 0.670986
2010-04-23 10:48:46 51°33.147 2°56.015 8.7405 3.479367 32.498034 1.193347
2010-04-23 10:49:46 51°33.145 2°56.038 8.7358 3.477998 32.557174 1.889828
2010-04-23 10:50:46 51°33.145 2°56.058 8.7652 3.477365 32.55363 1.82018
2010-04-23 10:51:46 51°33.148 2°56.075 8.8013 3.477575 32.523259 1.47194
2010-04-23 10:52:46 51°33.151 2°56.089 8.8429 3.478208 32.498082 1.158523
2010-04-23 10:53:50 51°33.156 2°56.103 8.8552 3.479051 32.471376 0.984403
2010-04-23 10:54:50 51°33.161 2°56.115 8.8702 3.479683 32.463619 0.879931
2010-04-23 10:55:49 51°33.167 2°56.121 8.8643 3.480105 32.458201 0.914755
2010-04-23 10:56:49 51°33.174 2°56.12 8.8436 3.480948 32.457905 0.949579
2010-04-23 10:57:48 51°33.183 2°56.116 8.7891 3.481476 32.512354 1.506764
2010-04-23 10:58:47 51°33.192 2°56.113 8.8032 3.48 32.500066 1.367467
2010-04-23 10:59:46 51°33.2 2°56.11 8.9223 3.480738 32.517537 1.367467
2010-04-23 11:00:46 51°33.207 2°56.107 9.0026 3.483793 32.421255 0.287922
2010-04-23 11:01:46 51°33.213 2°56.104 9.0146 3.487061 32.405573 0.18345
2010-04-23 11:02:46 51°33.219 2°56.102 9.0084 3.488748 32.405775 0.18345
2010-04-23 11:03:47 51°33.224 2°56.1 9.0163 3.489696 32.413319 0.148626
2010-04-23 11:04:46 51°33.228 2°56.099 9.0132 3.490329 32.423585 0.18345
2010-04-23 11:05:47 51°33.233 2°56.098 9.0129 3.49054 32.428753 0.218274
2010-04-23 11:06:46 51°33.236 2°56.098 9.0197 3.491278 32.434871 0.218274
2010-04-23 11:07:47 51°33.239 2°56.098 9.024 3.490435 32.430659 0.18345
2010-04-23 11:08:46 51°33.242 2°56.099 9.0349 3.490224 32.426238 0.18345
2010-04-23 11:09:46 51°33.244 2°56.1 9.0421 3.490751 32.418958 0.218274
2010-04-23 11:10:46 51°33.247 2°56.1 9.0495 3.492121 32.428606 0.218274
2010-04-23 11:11:46 51°33.25 2°56.1 9.0543 3.492437 32.425137 0.218274
2010-04-23 11:12:46 51°33.253 2°56.1 9.0352 3.492332 32.421807 0.253098
2010-04-23 11:13:46 51°33.255 2°56.099 9.025 3.490435 32.430659 0.427218
2010-04-23 11:14:47 51°33.257 2°56.098 9.0231 3.487483 32.400949 0.427218
2010-04-23 11:15:46 51°33.259 2°56.097 9.0017 3.487272 32.406253 0.496866
2010-04-23 11:16:47 51°33.261 2°56.096 8.9961 3.490962 32.459325 0.566514
2010-04-23 11:17:46 51°33.263 2°56.094 8.9929 3.490962 32.462324 0.670986
2010-04-23 11:18:46 51°33.266 2°56.092 9.0021 3.491489 32.469268 0.740634
2010-04-23 11:19:46 51°33.267 2°56.09 9.0081 3.493281 32.481026 0.670986
2010-04-23 11:20:46 51°33.269 2°56.087 9.0298 3.493387 32.477614 0.53169
2010-04-23 11:21:46 51°33.27 2°56.085 9.045 3.494546 32.467095 0.462042
2010-04-23 11:22:46 51°33.272 2°56.082 9.0563 3.494968 32.458714 0.427218
2010-04-23 11:23:47 51°33.273 2°56.079 9.0663 3.495073 32.451567 0.35757
2010-04-23 11:24:46 51°33.275 2°56.078 9.0774 3.495495 32.446938 0.35757
2010-04-23 11:25:47 51°33.277 2°56.075 9.0883 3.495916 32.440068 0.35757
2010-04-23 11:26:46 51°33.278 2°56.071 9.1031 3.496654 32.440198 0.322746
2010-04-23 11:27:47 51°33.28 2°56.069 9.1041 3.496865 32.431911 0.322746
2010-04-23 11:28:46 51°33.282 2°56.066 9.1125 3.498024 32.440869 0.287922
2010-04-23 11:29:46 51°33.283 2°56.063 9.1122 3.497919 32.436048 0.287922
2010-04-23 11:30:47 51°33.284 2°56.06 9.1158 3.496759 32.423358 0.287922
2010-04-23 11:31:46 51°33.285 2°56.056 9.1328 3.496232 32.40823 0.287922
2010-04-23 11:32:47 51°33.287 2°56.052 9.1436 3.498446 32.419085 0.287922
2010-04-23 11:33:46 51°33.288 2°56.049 9.1431 3.498551 32.412713 0.253098
2010-04-23 11:34:46 51°33.289 2°56.046 9.1422 3.498024 32.408035 0.253098
2010-04-23 11:35:46 51°33.29 2°56.043 9.1618 3.497602 32.402205 0.287922
2010-04-23 11:36:49 51°33.292 2°56.039 9.173 3.498973 32.397679 0.218274
2010-04-23 11:37:47 51°33.293 2°56.036 9.1651 3.499289 32.392742 0.253098
2010-04-23 11:38:47 51°33.295 2°56.032 9.1645 3.49834 32.386707 0.218274
2010-04-23 11:39:47 51°33.297 2°56.027 9.1635 3.497813 32.381287 0.253098
2010-04-23 11:40:46 51°33.297 2°56.022 9.1643 3.496969 32.371128 0.218274
2010-04-23 11:41:46 51°33.299 2°56.018 9.1607 3.496232 32.368748 0.253098
2010-04-23 11:42:46 51°33.301 2°56.012 9.1563 3.495494 32.364879 0.218274
2010-04-23 11:43:47 51°33.302 2°56.007 9.1585 3.495283 32.358992 0.218274
2010-04-23 11:44:46 51°33.302 2°56.001 9.1657 3.494334 32.348492 0.218274
2010-04-23 11:45:47 51°33.302 2°55.995 9.1634 3.493807 32.340843 0.18345
2010-04-23 11:46:46 51°33.303 2°55.989 9.1614 3.492542 32.329324 0.218274
2010-04-23 11:47:46 51°33.304 2°55.983 9.1688 3.49212 32.32276 0.218274
2010-04-23 11:48:47 51°33.303 2°55.977 9.1672 3.491065 32.305242 0.18345
2010-04-23 11:49:46 51°33.303 2°55.971 9.1682 3.491487 32.310318 0.18345
2010-04-23 11:50:46 51°33.303 2°55.965 9.1725 3.492014 32.31722 0.18345
2010-04-23 11:51:46 51°33.29 2°55.971 9.1758 3.491593 32.311401 0.18345
2010-04-23 11:52:46 51°33.251 2°55.984 9.1055 3.490328 32.319936 0.35757
2010-04-23 11:53:46 51°33.203 2°55.987 9.1067 3.487376 32.329726 0.35757
2010-04-23 11:54:46 51°33.162 2°55.969 9.0463 3.486111 32.326379 0.392394
2010-04-23 11:55:46 51°33.135 2°55.939 9.07 3.482316 32.31782 0.427218
2010-04-23 11:56:46 51°33.117 2°55.908 9.0828 3.481789 32.293774 0.287922
2010-04-23 11:57:46 51°33.114 2°55.892 9.0912 3.481156 32.28354 0.322746
2010-04-23 11:58:46 51°33.121 2°55.888 9.0311 3.480735 32.271019 0.287922
2010-04-23 11:59:46 51°33.13 2°55.887 8.8381 3.481579 32.357968 1.785356
2010-04-23 12:00:46 51°33.135 2°55.885 8.7578 3.478313 32.484082 3.28279
2010-04-23 12:01:46 51°33.139 2°55.883 8.7464 3.475783 32.518261 3.770327
2010-04-23 12:02:46 51°33.141 2°55.879 8.7409 3.474518 32.509657 3.805151
2010-04-23 12:03:46 51°33.142 2°55.874 8.6982 3.47494 32.524637 3.909623
2010-04-23 12:04:46 51°33.142 2°55.867 8.6841 3.473886 32.553094 4.257864
2010-04-23 12:05:46 51°33.143 2°55.86 8.7092 3.472832 32.545917 3.979271
2010-04-23 12:06:46 51°33.142 2°55.853 8.718 3.473148 32.528731 3.944447
2010-04-23 12:07:46 51°33.141 2°55.845 8.7515 3.473359 32.524861 3.874799
2010-04-23 12:08:46 51°33.14 2°55.838 8.8234 3.473569 32.477879 3.10867
2010-04-23 12:09:46 51°33.137 2°55.832 8.8681 3.47515 32.438478 2.655957
2010-04-23 12:10:46 51°33.134 2°55.825 8.9032 3.475993 32.414868 2.481837
2010-04-23 12:11:46 51°33.132 2°55.818 8.9186 3.476941 32.3939 2.307717
2010-04-23 12:12:46 51°33.128 2°55.811 8.9544 3.477363 32.386262 2.238069
2010-04-23 12:13:46 51°33.125 2°55.804 8.9783 3.478206 32.358278 1.924652
2010-04-23 12:14:46 51°33.121 2°55.798 9.0146 3.479154 32.341907 1.715708
2010-04-23 12:15:46 51°33.117 2°55.792 9.0239 3.480419 32.331066 1.541588
2010-04-23 12:16:46 51°33.111 2°55.786 9.0324 3.480525 32.324692 1.506764
2010-04-23 12:17:46 51°33.107 2°55.78 9.059 3.480841 32.316768 1.437116
2010-04-23 12:18:46 51°33.101 2°55.775 9.0753 3.481473 32.300192 1.262995
2010-04-23 12:19:46 51°33.094 2°55.779 9.0804 3.481789 32.292286 1.193347
2010-04-23 12:20:50 51°33.09 2°55.855 8.82 3.482527 32.328938 1.82018
2010-04-23 12:21:50 51°33.106 2°55.959 8.7231 3.478735 32.523956 2.690782
2010-04-23 12:22:50 51°33.137 2°56.063 8.6896 3.473675 32.531939 2.447013
2010-04-23 12:23:50 51°33.174 2°56.149 8.6383 3.471989 32.541693 2.516661
2010-04-23 12:24:49 51°33.192 2°56.19 8.6441 3.470619 32.563123 2.899726
2010-04-23 12:25:49 51°33.192 2°56.186 8.6868 3.470197 32.557969 3.143494
2010-04-23 12:26:48 51°33.189 2°56.182 8.8015 3.471672 32.49521 2.621133
2010-04-23 12:27:47 51°33.185 2°56.177 8.9003 3.475045 32.45999 2.377365
2010-04-23 12:28:46 51°33.181 2°56.171 9.0338 3.478733 32.389938 1.541588
2010-04-23 12:29:46 51°33.175 2°56.165 9.0934 3.484109 32.344495 0.984403
2010-04-23 12:30:46 51°33.168 2°56.158 9.1354 3.487271 32.323431 0.775459
2010-04-23 12:31:46 51°33.16 2°56.15 9.1438 3.489168 32.316184 0.636162
2010-04-23 12:32:46 51°33.151 2°56.141 9.1737 3.490011 32.311483 0.636162
2010-04-23 12:33:46 51°33.142 2°56.133 9.1866 3.491065 32.296337 0.496866
2010-04-23 12:34:46 51°33.134 2°56.124 9.1839 3.491487 32.296961 0.566514
2010-04-23 12:35:46 51°33.124 2°56.115 9.1791 3.491065 32.287438 0.601338
2010-04-23 12:36:46 51°33.115 2°56.105 9.1818 3.491592 32.295819 0.670986
2010-04-23 12:37:46 51°33.106 2°56.096 9.1787 3.491065 32.294112 0.70581
2010-04-23 12:38:46 51°33.096 2°56.087 9.1521 3.490433 32.295031 0.879931
2010-04-23 12:39:46 51°33.086 2°56.078 9.1406 3.491382 32.320373 1.019227
2010-04-23 12:40:46 51°33.077 2°56.069 9.1433 3.490644 32.323931 1.123699
2010-04-23 12:41:46 51°33.067 2°56.059 9.1558 3.490539 32.321361 1.054051
2010-04-23 12:42:46 51°33.056 2°56.049 9.1509 3.491066 32.315636 1.019227
2010-04-23 12:43:46 51°33.045 2°56.04 9.1449 3.490855 32.320898 1.088875
2010-04-23 12:44:46 51°33.035 2°56.031 9.1559 3.491066 32.319351 1.019227
2010-04-23 12:45:46 51°33.023 2°56.022 9.1624 3.491066 32.314151 0.914755
2010-04-23 12:46:46 51°33.012 2°56.012 9.1657 3.491593 32.315114 0.984403
2010-04-23 12:47:47 51°32.997 2°56.02 9.1408 3.491804 32.317281 0.984403
2010-04-23 12:48:50 51°32.989 2°56.069 8.8173 3.491699 32.405571 2.238069
2010-04-23 12:49:50 51°32.997 2°56.136 8.829 3.482214 32.542678 3.28279
2010-04-23 12:50:50 51°33.02 2°56.204 8.8677 3.479261 32.416395 1.889828
2010-04-23 12:51:50 51°33.051 2°56.264 8.8207 3.48137 32.495417 2.203245
2010-04-23 12:52:50 51°33.082 2°56.308 8.846 3.478945 32.464256 1.924652
2010-04-23 12:53:49 51°33.083 2°56.304 8.8239 3.479472 32.469719 1.959476
2010-04-23 12:54:49 51°33.075 2°56.266 8.9257 3.479155 32.422814 1.82018
2010-04-23 12:55:48 51°33.068 2°56.236 9.0138 3.483161 32.443983 2.307717
2010-04-23 12:56:47 51°33.061 2°56.21 9.1161 3.485269 32.363168 1.47194
2010-04-23 12:57:47 51°33.055 2°56.186 9.1738 3.489485 32.323155 1.054051
2010-04-23 12:58:46 51°33.048 2°56.166 9.2058 3.491909 32.305002 0.740634
2010-04-23 12:59:46 51°33.039 2°56.145 9.2479 3.493701 32.292267 0.53169
2010-04-23 13:00:46 51°33.031 2°56.126 9.2835 3.49602 32.281267 0.427218
2010-04-23 13:01:47 51°33.022 2°56.108 9.3087 3.498128 32.271092 0.322746
2010-04-23 13:02:46 51°33.012 2°56.091 9.3279 3.499709 32.265876 0.218274
2010-04-23 13:03:47 51°33.002 2°56.072 9.3297 3.50129 32.267307 0.253098
2010-04-23 13:04:47 51°32.995 2°56.049 9.3537 3.501395 32.265436 0.253098
2010-04-23 13:05:46 51°32.995 2°56.023 9.3652 3.503293 32.262733 0.148626
2010-04-23 13:06:47 51°33.004 2°56 9.3674 3.504663 32.267169 0.148626
2010-04-23 13:07:46 51°33.021 2°55.986 9.3308 3.505401 32.280613 0.148626
2010-04-23 13:08:46 51°33.043 2°55.965 9.225 3.505191 32.315364 0.392394
2010-04-23 13:09:46 51°33.067 2°55.937 9.0832 3.501397 32.398787 1.054051
2010-04-23 13:10:47 51°33.092 2°55.929 9.216 3.496337 32.390678 0.740634
2010-04-23 13:11:46 51°33.117 2°55.93 9.2116 3.499921 32.34351 0.322746
2010-04-23 13:12:47 51°33.141 2°55.898 9.0618 3.500027 32.383215 0.566514
2010-04-23 13:13:47 51°33.167 2°55.812 9.0003 3.494019 32.448927 1.054051
2010-04-23 13:14:46 51°33.197 2°55.674 8.8123 3.49054 32.465469 1.193347
2010-04-23 13:15:47 51°33.246 2°55.485 8.7626 3.482847 32.561349 2.203245
2010-04-23 13:16:46 51°33.294 2°55.401 9.1829 3.480526 32.467838 1.262995
2010-04-23 13:17:46 51°33.333 2°55.399 9.2679 3.497602 32.341216 0.18345
2010-04-23 13:18:46 51°33.353 2°55.435 9.3356 3.504664 32.349921 0.078977
2010-04-23 13:19:47 51°33.373 2°55.482 9.227 3.508565 32.380276 0.322746
2010-04-23 13:20:46 51°33.404 2°55.532 9.3001 3.505192 32.387221 0.35757
2010-04-23 13:21:47 51°33.441 2°55.591 9.2627 3.508143 32.348553 0.113802
2010-04-23 13:22:47 51°33.513 2°55.72 9.1611 3.507195 32.401836 0.287922
2010-04-23 13:23:46 51°33.602 2°55.877 9.1545 3.502663 32.501379 0.984403
2010-04-23 13:24:47 51°33.666 2°56.074 8.9954 3.50688 32.476769 0.740634
2010-04-23 13:25:46 51°33.677 2°56.294 8.8765 3.499396 32.544182 1.262995
2010-04-23 13:26:46 51°33.663 2°56.523 8.9789 3.490858 32.550736 1.47194
2010-04-23 13:27:46 51°33.65 2°56.744 8.7773 3.494336 32.514445 1.088875
2010-04-23 13:28:47 51°33.616 2°56.871 8.8763 3.482214 32.559323 1.541588
2010-04-23 13:29:46 51°33.549 2°56.916 9.1414 3.482002 32.468822 1.123699
2010-04-23 13:30:47 51°33.49 2°56.829 9.3369 3.494228 32.288047 0.148626
2010-04-23 13:31:47 51°33.466 2°56.749 9.3396 3.500763 32.258224 0.078977
2010-04-23 13:32:46 51°33.451 2°56.688 9.2914 3.501185 32.272131 0.218274
2010-04-23 13:33:47 51°33.44 2°56.636 9.2869 3.501818 32.306682 0.35757
2010-04-23 13:34:46 51°33.429 2°56.595 9.3524 3.502661 32.310886 0.287922
2010-04-23 13:35:46 51°33.416 2°56.558 9.3875 3.506667 32.292078 0.148626
2010-04-23 13:36:46 51°33.402 2°56.528 9.4124 3.507299 32.274224 0.148626
2010-04-23 13:37:47 51°33.387 2°56.506 9.4199 3.511199 32.291254 0.113802
2010-04-23 13:38:46 51°33.372 2°56.491 9.3612 3.511305 32.298222 0.287922
2010-04-23 13:39:47 51°33.354 2°56.483 9.2094 3.50983 32.331815 0.53169
2010-04-23 13:40:46 51°33.339 2°56.48 9.0194 3.502662 32.423705 1.541588
2010-04-23 13:41:46 51°33.326 2°56.479 8.9148 3.49286 32.484175 2.133597
2010-04-23 13:42:46 51°33.314 2°56.479 8.9001 3.487062 32.486592 2.307717
2010-04-23 13:43:46 51°33.304 2°56.481 8.8607 3.485797 32.490805 2.447013
2010-04-23 13:44:46 51°33.294 2°56.482 8.8295 3.483162 32.503435 2.864902
2010-04-23 13:45:46 51°33.285 2°56.483 8.8289 3.481581 32.508164 2.899726
2010-04-23 13:46:47 51°33.277 2°56.482 8.8081 3.479262 32.484869 2.830078
2010-04-23 13:47:46 51°33.27 2°56.48 8.7569 3.479684 32.522465 3.073846
2010-04-23 13:48:47 51°33.263 2°56.475 8.7491 3.475256 32.517325 3.352439
2010-04-23 13:49:45 51°33.257 2°56.469 8.696 3.476732 32.544023 3.526559
2010-04-23 13:50:46 51°33.252 2°56.461 8.6752 3.474203 32.55259 4.153392
2010-04-23 13:51:45 51°33.246 2°56.452 8.6747 3.473254 32.561695 4.327512
2010-04-23 13:52:45 51°33.24 2°56.444 8.6822 3.472516 32.550216 4.362336
2010-04-23 13:53:46 51°33.233 2°56.437 8.681 3.473465 32.550223 4.292688
2010-04-23 13:54:45 51°33.226 2°56.431 8.6859 3.473043 32.548871 4.292688
2010-04-23 13:55:47 51°33.204 2°56.387 8.8425 3.473149 32.549968 4.22304
2010-04-23 13:56:46 51°33.194 2°56.29 8.971 3.481053 32.422924 2.377365
2010-04-23 13:57:47 51°33.188 2°56.175 9.056 3.487799 32.425917 1.64606
2010-04-23 13:58:45 51°33.18 2°56.078 9.0744 3.493386 32.436417 1.158523
2010-04-23 13:59:46 51°33.172 2°55.99 9.0997 3.496759 32.435307 0.879931
2010-04-23 14:00:47 51°33.161 2°55.912 9.0715 3.499606 32.463139 0.845107
2010-04-23 14:01:45 51°33.161 2°55.807 9.0794 3.499712 32.484427 0.879931
2010-04-23 14:02:46 51°33.218 2°55.613 8.8626 3.500766 32.496795 0.949579
2010-04-23 14:03:45 51°33.332 2°55.32 8.8943 3.489909 32.571858 1.576412
2010-04-23 14:04:47 51°33.414 2°54.958 9.1234 3.493493 32.548619 1.123699
2010-04-23 14:05:46 51°33.418 2°54.58 9.0312 3.509621 32.551359 0.810283
2010-04-23 14:06:46 51°33.308 2°54.245 9.335 3.508883 32.528779 0.392394
2010-04-23 14:07:46 51°33.109 2°54.024 9.0802 3.525117 32.509827 0.253098
2010-04-23 14:08:46 51°32.883 2°53.876 8.8694 3.511942 32.636876 0.879931
2010-04-23 14:09:46 51°32.652 2°53.747 8.8751 3.50003 32.645745 1.193347
2010-04-23 14:10:46 51°32.413 2°53.675 8.8676 3.501927 32.598935 0.949579
2010-04-23 14:11:46 51°32.172 2°53.606 8.6576 3.500031 32.713224 2.029124
2010-04-23 14:12:46 51°31.929 2°53.534 8.5939 3.488541 32.714789 2.203245
2010-04-23 14:13:46 51°31.684 2°53.462 8.6149 3.485484 32.721106 2.029124
2010-04-23 14:14:46 51°31.439 2°53.39 8.7391 3.486327 32.730664 2.586309
2010-04-23 14:15:46 51°31.193 2°53.318 8.8767 3.494128 32.719583 2.621133
2010-04-23 14:16:46 51°30.947 2°53.244 9.1216 3.504562 32.625436 1.228171
2010-04-23 14:17:46 51°30.7 2°53.169 9.0365 3.514577 32.616685 0.845107
2010-04-23 14:18:46 51°30.455 2°53.093 9.1208 3.509833 32.634684 1.506764
2010-04-23 14:19:46 51°30.211 2°53.013 9.1951 3.514787 32.582838 0.810283
2010-04-23 14:20:46 51°29.97 2°52.933 9.5137 3.519003 32.49176 0.496866
2010-04-23 14:21:46 51°29.729 2°52.858 9.4648 3.523217 32.330764 0.392394
2010-04-23 14:22:46 51°29.488 2°52.78 9.3206 3.525749 32.416269 0.775459
2010-04-23 14:23:46 51°29.245 2°52.697 8.9675 3.523431 32.51708 1.332643
2010-04-23 14:24:46 51°29.002 2°52.613 8.7719 3.496656 32.58135 4.536456
2010-04-23 14:25:46 51°28.757 2°52.527 9.0576 3.483162 32.530604 3.526559
2010-04-23 14:26:46 51°28.513 2°52.461 9.4119 3.499289 32.394975 1.262995
2010-04-23 14:27:46 51°28.267 2°52.415 9.4733 3.51373 32.311208 1.123699
2010-04-23 14:28:46 51°28.019 2°52.37 9.3817 3.522901 32.354761 1.123699
2010-04-23 14:29:46 51°27.768 2°52.324 9.214 3.507299 32.294123 0.949579
2010-04-23 14:30:46 51°27.517 2°52.278 9.1812 3.483053 32.205159 0.670986
2010-04-23 14:31:46 51°27.266 2°52.231 9.5898 3.47135 31.994705 0.148626
2010-04-23 14:32:46 51°27.016 2°52.208 9.5935 3.481888 31.810808 -0.025495
2010-04-23 14:33:46 51°26.766 2°52.188 9.5695 3.476723 31.768493 0.218274
2010-04-23 14:34:46 51°26.516 2°52.165 9.5871 3.479148 31.820495 0.636162
2010-04-23 14:35:46 51°26.267 2°52.135 9.497 3.490428 31.928547 0.636162
2010-04-23 14:36:46 51°26.019 2°52.107 9.7487 3.494435 31.982298 1.158523
2010-04-23 14:37:46 51°25.771 2°52.077 9.7664 3.502023 31.888024 0.949579
2010-04-23 14:38:46 51°25.524 2°52.05 9.5917 3.498755 31.893828 1.123699
2010-04-23 14:39:46 51°25.276 2°52.025 9.3371 3.486 31.887193 1.750532
2010-04-23 14:40:46 51°25.029 2°51.995 9.3684 3.460491 31.849366 2.098773
2010-04-23 14:41:46 51°24.78 2°51.963 9.372 3.452583 31.703392 1.889828
2010-04-23 14:42:46 51°24.532 2°51.933 9.3803 3.443939 31.639119 1.750532
2010-04-23 14:43:46 51°24.285 2°51.906 9.4203 3.43677 31.530787 1.924652
2010-04-23 14:44:46 51°24.037 2°51.878 9.4198 3.433924 31.476702 3.178318
2010-04-23 14:45:46 51°23.79 2°51.849 9.415 3.429496 31.438117 3.874799
2010-04-23 14:46:46 51°23.543 2°51.819 9.3354 3.425597 31.454339 5.407058
2010-04-23 14:47:46 51°23.293 2°51.792 9.4125 3.420221 31.413196 5.232937
2010-04-23 14:48:46 51°23.042 2°51.759 9.6531 3.420641 31.348783 4.536456
2010-04-23 14:49:46 51°22.79 2°51.724 10.0713 3.426963 31.118402 1.750532
2010-04-23 14:50:46 51°22.539 2°51.687 9.9952 3.445407 31.028919 0.879931
2010-04-23 14:51:46 51°22.294 2°51.648 9.8971 3.44815 31.233414 1.82018
2010-04-23 14:52:46 51°22.052 2°51.609 10.174 3.447306 31.189914 2.725606
2010-04-23 14:53:47 51°21.806 2°51.574 10.1384 3.442771 30.928059 3.839975
2010-04-23 14:54:47 51°21.565 2°51.541 10.1367 3.432756 30.86949 3.596207
2010-04-23 14:55:47 51°21.321 2°51.509 9.8421 3.430122 30.908653 4.675753
2010-04-23 14:56:47 51°21.079 2°51.474 9.9462 3.412415 30.921039 4.675753
2010-04-23 14:57:47 51°20.834 2°51.455 9.9062 3.413783 30.801815 4.083744
2010-04-23 14:58:45 51°20.6 2°51.454 9.8466 3.418423 30.940375 5.85977
2010-04-23 14:59:46 51°20.353 2°51.459 9.6405 3.415999 30.981458 7.984038
2010-04-23 15:00:46 51°20.111 2°51.467 9.5363 3.39534 30.944447 12.929053
2010-04-23 15:01:46 51°19.868 2°51.471 9.5909 3.386276 30.91939 15.784626
2010-04-23 15:02:46 51°19.623 2°51.471 9.7437 3.384694 30.84665 13.033525
2010-04-23 15:03:46 51°19.378 2°51.475 9.8452 3.393336 30.774361 9.655592
2010-04-23 15:04:46 51°19.136 2°51.508 9.8422 3.397973 30.763487 12.162924
2010-04-23 15:05:46 51°18.894 2°51.545 9.8292 3.395443 30.751226 17.45618
2010-04-23 15:06:45 51°18.656 2°51.58 9.8144 3.389224 30.69637 22.157428
2010-04-23 15:07:46 51°18.412 2°51.619 9.8143 3.380054 30.643592 36.017401
2010-04-23 15:08:46 51°18.17 2°51.656 9.8247 3.377313 30.575404 32.395699
2010-04-23 15:09:46 51°17.929 2°51.696 9.9127 3.374783 30.545891 38.907797
2010-04-23 15:10:46 51°17.688 2°51.735 9.936 3.380685 30.528916 18.535726
2010-04-23 15:11:46 51°17.445 2°51.779 9.9314 3.385217 30.56059 15.958746
2010-04-23 15:12:45 51°17.224 2°51.906 9.9858 3.384374 30.545986 10.978906
2010-04-23 15:13:45 51°17.025 2°52.111 9.9706 3.384795 30.509178 8.854639
2010-04-23 15:14:45 51°16.827 2°52.316 10.0405 3.379525 30.466742 12.1281
2010-04-23 15:15:45 51°16.627 2°52.516 10.0904 3.380789 30.426256 19.197383
2010-04-23 15:16:46 51°16.424 2°52.719 10.1336 3.383318 30.417516 21.948483
2010-04-23 15:17:46 51°16.223 2°52.911 10.1891 3.387323 30.414685 15.192617
2010-04-23 15:18:46 51°16.021 2°53.1 10.1947 3.389958 30.403663 11.640563
2010-04-23 15:19:46 51°15.797 2°53.22 10.1565 3.390063 30.395243 9.516296
2010-04-23 15:20:46 51°15.568 2°53.323 10.1508 3.386796 30.391156 12.197748
2010-04-23 15:21:46 51°15.343 2°53.437 10.1715 3.384056 30.380804 8.297454
2010-04-23 15:22:45 51°15.135 2°53.586 10.1856 3.384688 30.370183 6.869668
2010-04-23 15:23:45 51°14.924 2°53.743 10.2041 3.384371 30.339341 9.237704
2010-04-23 15:24:45 51°14.7 2°53.842 10.2435 3.38163 30.285835 9.934185
2010-04-23 15:25:47 51°14.456 2°53.788 10.3176 3.382157 30.25208 8.819815
2010-04-23 15:26:46 51°14.27 2°53.566 10.3716 3.382894 30.207791 7.740269
2010-04-23 15:27:46 51°14.127 2°53.251 10.354 3.385423 30.189381 6.138363
2010-04-23 15:28:46 51°13.981 2°52.935 10.3503 3.382894 30.179721 6.312483
2010-04-23 15:29:46 51°13.849 2°52.603 10.3536 3.381629 30.16521 4.362336
2010-04-23 15:30:46 51°13.727 2°52.261 10.3749 3.380048 30.162253 4.431984
2010-04-23 15:31:45 51°13.617 2°51.962 10.3936 3.379731 30.139115 9.864537
2010-04-23 15:32:45 51°13.53 2°51.729 10.4143 3.382472 30.140214 4.849873
2010-04-23 15:33:45 51°13.469 2°51.554 10.4271 3.382471 30.128898 6.834844
2010-04-23 15:34:46 51°13.434 2°51.511 10.4249 3.382682 30.122332 5.85977
2010-04-23 15:35:49 51°13.43 2°51.48 10.4227 3.382471 30.117592 6.312483
2010-04-23 15:36:49 51°13.419 2°51.45 10.4211 3.381944 30.116379 5.894594
2010-04-23 15:37:48 51°13.404 2°51.421 10.4256 3.381523 30.112217 6.382131
2010-04-23 15:38:47 51°13.368 2°51.412 10.4262 3.381417 30.109846 6.382131
2010-04-23 15:39:46 51°13.351 2°51.478 10.4056 3.381523 30.114211 7.078612
2010-04-23 15:40:46 51°13.434 2°51.665 10.397 3.38068 30.118522 5.023993
2010-04-23 15:41:45 51°13.542 2°51.933 10.3729 3.38068 30.12784 7.078612
2010-04-23 15:42:46 51°13.66 2°52.198 10.3622 3.379099 30.131531 6.173187
2010-04-23 15:43:46 51°13.758 2°52.411 10.3409 3.380153 30.150618 3.665855
2010-04-23 15:44:45 51°13.828 2°52.58 10.3343 3.379521 30.163048 4.292688
2010-04-23 15:45:46 51°13.891 2°52.733 10.3246 3.379521 30.165051 3.700679
2010-04-23 15:46:46 51°13.949 2°52.876 10.3522 3.379099 30.166222 4.849873
2010-04-23 15:47:45 51°14.005 2°53.014 10.3665 3.357172 29.738764 3.979271
2010-04-23 15:48:46 51°14.054 2°53.137 10.3537 0.394447 2.789482 4.327512
2010-04-23 15:49:46 51°14.083 2°53.22 10.3408 0.105749 0.701067 5.198113
2010-04-23 15:50:46 51°14.102 2°53.283 10.3425 0.069742 0.451811 7.844741
2010-04-23 15:51:46 51°14.114 2°53.325 10.8599 0.064539 0.413636 -1.000568
2010-04-23 15:52:46 51°14.122 2°53.351 10.9836 0.068389 0.439426 -0.965744
2010-04-23 15:53:46 51°14.129 2°53.367 11.1831 0.071302 0.459289 -1.000568
2010-04-23 15:54:46 51°14.133 2°53.379 11.372 0.071406 0.460509 -1.000568
2010-04-23 15:55:46 51°14.134 2°53.39 11.5305 0.070574 0.45469 -1.000568
2010-04-23 15:56:46 51°14.134 2°53.4 11.6614 0.069533 0.447561 -0.965744
2010-04-23 15:57:46 51°14.133 2°53.412 11.78 0.068389 0.439802 -0.965744
2010-04-23 15:58:46 51°14.131 2°53.424 11.8943 0.067453 0.433321 -0.965744
2010-04-23 15:59:46 51°14.137 2°53.454 12.0038 0.066516 0.427056 -1.035392
2010-04-23 16:00:47 51°14.198 2°53.593 12.1012 0.065788 0.422156 -1.000568
2010-04-23 16:01:46 51°14.28 2°53.798 12.1918 0.065268 0.418619 -0.965744
2010-04-23 16:02:47 51°14.365 2°54.036 12.2784 0.064747 0.415118 -1.000568
2010-04-23 16:03:46 51°14.451 2°54.277 12.3875 0.064331 0.41231 -0.965744
2010-04-23 16:04:46 51°14.55 2°54.519 12.4888 0.063915 0.409488 -0.965744
2010-04-23 16:05:46 51°14.57 2°54.801 12.5206 0.063603 0.407375 -1.000568
2010-04-23 16:06:46 51°14.465 2°55.062 12.6312 0.063291 0.405262 -1.000568
2010-04-23 16:07:47 51°14.289 2°55.253 12.6857 0.063083 0.403825 -0.965744
2010-04-23 16:08:48 51°14.135 2°55.416 12.7548 0.062875 0.402389 -1.000568
2010-04-23 16:09:49 51°13.997 2°55.518 12.8405 0.062667 0.400961 -0.965744
2010-04-23 16:10:50 51°13.897 2°55.589 12.89 0.062563 0.400223 -0.965744
2010-04-23 16:11:49 51°13.811 2°55.651 12.9493 0.062459 0.399494 -1.000568
2010-04-23 16:12:50 51°13.745 2°55.739 13.0452 0.06225 0.398075 -0.965744
2010-04-23 16:13:51 51°13.693 2°55.839 13.1076 0.062146 0.397331 -0.965744
2010-04-23 16:14:50 51°13.667 2°55.932 13.252 0.062042 0.396571 -0.965744
2010-04-23 16:15:50 51°13.661 2°55.96 13.2741 0.062042 0.396508 -1.000568